createdAt,value
2019-02-23T00:00:16.437Z,0.76
2019-02-23T00:15:16.793Z,0.88
2019-02-23T01:00:16.850Z,0.83
2019-02-23T01:15:16.244Z,0.95
2019-02-23T01:30:16.601Z,0.78
2019-02-23T02:00:16.181Z,0.72
2019-02-23T02:15:16.511Z,0.82
2019-02-23T02:30:16.871Z,0.81
2019-02-23T02:45:16.238Z,0.81
2019-02-23T03:00:16.602Z,0.75
2019-02-23T04:00:16.918Z,0.79
2019-02-23T04:15:16.260Z,0.8
2019-02-23T04:30:16.642Z,0.77
2019-02-23T05:00:16.294Z,0.81
2019-02-23T05:15:16.673Z,0.71
2019-02-23T05:30:16.725Z,0.83
2019-02-23T05:45:17.075Z,0.94
2019-02-23T06:00:16.440Z,0.96
2019-02-23T06:30:18.399Z,0.83
2019-02-23T06:45:16.886Z,0.84
2019-02-23T07:15:16.189Z,0.91
2019-02-23T07:30:16.637Z,0.92
2019-02-23T08:00:16.459Z,0.91
2019-02-23T08:30:16.657Z,0.83
2019-02-23T08:45:17.106Z,0.82
2019-02-23T09:00:16.507Z,0.77
2019-02-23T09:15:08.081Z,0.89
2019-02-23T09:30:08.309Z,0.81
2019-02-23T10:00:08.255Z,0.99
2019-02-23T10:15:08.231Z,0.98
2019-02-23T10:30:08.519Z,0.91
2019-02-23T10:45:08.625Z,0.82
2019-02-23T11:15:08.687Z,0.97
2019-02-23T11:30:08.730Z,0.87
2019-02-23T11:45:08.768Z,0.84
2019-02-23T12:00:09.064Z,0.89
2019-02-23T12:15:09.241Z,0.86
2019-02-23T12:30:10.719Z,0.86
2019-02-23T12:45:10.433Z,0.94
2019-02-23T13:00:10.470Z,0.89
2019-02-23T13:15:10.511Z,0.88
2019-02-23T13:30:10.563Z,0.92
2019-02-23T13:45:04.291Z,0.96
2019-02-23T14:00:04.403Z,1.08
2019-02-23T14:15:04.440Z,1.18
2019-02-23T14:45:04.511Z,1.38
2019-02-23T15:00:04.483Z,1.28
2019-02-23T15:15:10.722Z,1.27
2019-02-23T15:30:10.509Z,1.33
2019-02-23T16:00:10.334Z,1.54
2019-02-23T16:15:10.400Z,1.29
2019-02-23T16:30:10.370Z,0.98
2019-02-23T17:00:10.491Z,0.95
2019-02-23T17:30:12.683Z,0.93
2019-02-23T17:45:04.217Z,1.27
2019-02-23T18:15:08.294Z,1.1
2019-02-23T18:30:10.850Z,0.92
2019-02-23T18:45:03.053Z,0.8
2019-02-23T19:15:08.940Z,0.85
2019-02-23T19:30:10.239Z,0.92
2019-02-23T19:45:11.840Z,0.96
2019-02-23T20:00:02.455Z,0.79
2019-02-23T20:30:12.749Z,0.79
2019-02-23T20:45:12.850Z,0.97
2019-02-23T21:00:02.814Z,0.92
2019-02-23T21:30:10.533Z,0.79
2019-02-23T21:45:10.509Z,0.84
2019-02-23T22:00:10.613Z,0.9
2019-02-23T22:15:10.606Z,0.76
2019-02-23T23:30:10.827Z,0.81
